sensor_id;sensor_type;location;lat;lon;timestamp;temperature;humidity
17968;DHT22;9109;48.050;11.696;2023-08-01T03:47:39;19.50;99.90
17968;DHT22;9109;48.050;11.696;2023-08-01T03:50:41;19.50;99.90
17968;DHT22;9109;48.050;11.696;2023-08-01T03:53:48;19.50;99.90
17968;DHT22;9109;48.050;11.696;2023-08-01T03:56:50;19.40;99.90
17968;DHT22;9109;48.050;11.696;2023-08-01T03:59:53;19.40;99.90
17968;DHT22;9109;48.050;11.696;2023-08-01T04:02:56;19.30;99.90
17968;DHT22;9109;48.050;11.696;2023-08-01T04:05:58;19.30;99.90
17968;DHT22;9109;48.050;11.696;2023-08-01T04:09:00;19.20;99.90
17968;DHT22;9109;48.050;11.696;2023-08-01T04:12:02;19.10;99.90
17968;DHT22;9109;48.050;11.696;2023-08-01T04:15:05;19.10;99.90
17968;DHT22;9109;48.050;11.696;2023-08-01T04:18:09;19.00;99.90
17968;DHT22;9109;48.050;11.696;2023-08-01T04:21:12;18.90;99.90
17968;DHT22;9109;48.050;11.696;2023-08-01T04:24:14;18.90;99.90
17968;DHT22;9109;48.050;11.696;2023-08-01T04:27:17;18.80;99.90
17968;DHT22;9109;48.050;11.696;2023-08-01T04:30:21;18.60;99.90
17968;DHT22;9109;48.050;11.696;2023-08-01T04:33:24;18.70;99.90
17968;DHT22;9109;48.050;11.696;2023-08-01T04:36:26;18.70;99.90
17968;DHT22;9109;48.050;11.696;2023-08-01T04:39:28;18.70;99.90
17968;DHT22;9109;48.050;11.696;2023-08-01T04:42:30;18.80;99.90
17968;DHT22;9109;48.050;11.696;2023-08-01T04:45:32;18.80;99.90
17968;DHT22;9109;48.050;11.696;2023-08-01T04:48:35;18.90;99.90
17968;DHT22;9109;48.050;11.696;2023-08-01T04:51:37;18.90;99.90
17968;DHT22;9109;48.050;11.696;2023-08-01T04:54:39;18.90;99.90
17968;DHT22;9109;48.050;11.696;2023-08-01T04:57:41;19.00;99.90
17968;DHT22;9109;48.050;11.696;2023-08-01T05:00:43;18.90;99.90
17968;DHT22;9109;48.050;11.696;2023-08-01T05:03:46;18.90;99.90
17968;DHT22;9109;48.050;11.696;2023-08-01T05:06:48;18.90;99.90
17968;DHT22;9109;48.050;11.696;2023-08-01T05:09:50;18.90;99.90
17968;DHT22;9109;48.050;11.696;2023-08-01T05:12:52;18.80;99.90
17968;DHT22;9109;48.050;11.696;2023-08-01T05:15:54;18.80;99.90
17968;DHT22;9109;48.050;11.696;2023-08-01T05:18:58;18.70;99.90
17968;DHT22;9109;48.050;11.696;2023-08-01T05:21:59;18.70;99.90
17968;DHT22;9109;48.050;11.696;2023-08-01T05:25:01;18.70;99.90
17968;DHT22;9109;48.050;11.696;2023-08-01T05:28:05;18.50;99.90
17968;DHT22;9109;48.050;11.696;2023-08-01T05:31:07;18.50;99.90
17968;DHT22;9109;48.050;11.696;2023-08-01T05:34:10;18.50;99.90
17968;DHT22;9109;48.050;11.696;2023-08-01T05:37:12;18.40;99.90
17968;DHT22;9109;48.050;11.696;2023-08-01T05:40:14;18.40;99.90
17968;DHT22;9109;48.050;11.696;2023-08-01T05:43:16;18.30;99.90
17968;DHT22;9109;48.050;11.696;2023-08-01T05:46:18;18.30;99.90
17968;DHT22;9109;48.050;11.696;2023-08-01T05:49:22;18.30;99.90
17968;DHT22;9109;48.050;11.696;2023-08-01T05:52:24;18.30;99.90
17968;DHT22;9109;48.050;11.696;2023-08-01T05:55:26;18.30;99.90
17968;DHT22;9109;48.050;11.696;2023-08-01T05:58:29;18.30;99.90
17968;DHT22;9109;48.050;11.696;2023-08-01T06:01:32;18.40;99.90
17968;DHT22;9109;48.050;11.696;2023-08-01T06:04:35;18.30;99.90
17968;DHT22;9109;48.050;11.696;2023-08-01T06:07:39;18.20;99.90
17968;DHT22;9109;48.050;11.696;2023-08-01T06:10:41;18.30;99.90
17968;DHT22;9109;48.050;11.696;2023-08-01T06:13:43;18.30;99.90
17968;DHT22;9109;48.050;11.696;2023-08-01T06:16:45;18.30;99.90
17968;DHT22;9109;48.050;11.696;2023-08-01T06:19:49;18.40;99.90
17968;DHT22;9109;48.050;11.696;2023-08-01T06:22:53;18.50;99.90
17968;DHT22;9109;48.050;11.696;2023-08-01T06:25:58;18.50;99.90
17968;DHT22;9109;48.050;11.696;2023-08-01T06:29:01;18.50;99.90
17968;DHT22;9109;48.050;11.696;2023-08-01T06:32:03;18.40;99.90
17968;DHT22;9109;48.050;11.696;2023-08-01T06:35:17;18.30;99.90
17968;DHT22;9109;48.050;11.696;2023-08-01T06:38:19;18.30;99.90
17968;DHT22;9109;48.050;11.696;2023-08-01T06:41:21;18.30;99.90
17968;DHT22;9109;48.050;11.696;2023-08-01T06:44:23;18.30;99.90
17968;DHT22;9109;48.050;11.696;2023-08-01T06:47:25;18.30;99.90
17968;DHT22;9109;48.050;11.696;2023-08-01T06:50:28;18.30;99.90
17968;DHT22;9109;48.050;11.696;2023-08-01T06:53:30;18.30;99.90
17968;DHT22;9109;48.050;11.696;2023-08-01T06:56:32;18.40;99.90
17968;DHT22;9109;48.050;11.696;2023-08-01T06:59:34;18.40;99.90
17968;DHT22;9109;48.050;11.696;2023-08-01T07:02:36;18.50;99.90
17968;DHT22;9109;48.050;11.696;2023-08-01T07:05:40;18.40;99.90
17968;DHT22;9109;48.050;11.696;2023-08-01T07:08:42;18.40;99.90
17968;DHT22;9109;48.050;11.696;2023-08-01T07:11:44;18.40;99.90
17968;DHT22;9109;48.050;11.696;2023-08-01T07:14:46;18.40;99.90
17968;DHT22;9109;48.050;11.696;2023-08-01T07:17:48;18.40;99.90
17968;DHT22;9109;48.050;11.696;2023-08-01T07:21:00;18.40;99.90
17968;DHT22;9109;48.050;11.696;2023-08-01T07:24:02;18.40;99.90
17968;DHT22;9109;48.050;11.696;2023-08-01T07:27:05;18.50;99.90
17968;DHT22;9109;48.050;11.696;2023-08-01T07:30:08;18.50;99.90
17968;DHT22;9109;48.050;11.696;2023-08-01T07:33:10;18.50;99.90
17968;DHT22;9109;48.050;11.696;2023-08-01T07:36:13;18.40;99.90
17968;DHT22;9109;48.050;11.696;2023-08-01T07:39:16;18.50;99.90
17968;DHT22;9109;48.050;11.696;2023-08-01T07:42:17;18.40;99.90
17968;DHT22;9109;48.050;11.696;2023-08-01T07:45:20;18.50;99.90
17968;DHT22;9109;48.050;11.696;2023-08-01T07:48:22;18.50;99.90
17968;DHT22;9109;48.050;11.696;2023-08-01T07:51:25;18.50;99.90
17968;DHT22;9109;48.050;11.696;2023-08-01T07:54:27;18.50;99.90
17968;DHT22;9109;48.050;11.696;2023-08-01T07:57:29;18.50;99.90
17968;DHT22;9109;48.050;11.696;2023-08-01T08:00:31;18.50;99.90
17968;DHT22;9109;48.050;11.696;2023-08-01T08:03:33;18.60;99.90
17968;DHT22;9109;48.050;11.696;2023-08-01T08:06:37;18.60;99.90
17968;DHT22;9109;48.050;11.696;2023-08-01T08:09:39;18.60;99.90
17968;DHT22;9109;48.050;11.696;2023-08-01T08:12:41;18.60;99.90
17968;DHT22;9109;48.050;11.696;2023-08-01T08:15:43;18.60;99.90
17968;DHT22;9109;48.050;11.696;2023-08-01T08:18:45;18.60;99.90
17968;DHT22;9109;48.050;11.696;2023-08-01T08:21:49;18.60;99.90
17968;DHT22;9109;48.050;11.696;2023-08-01T08:24:51;18.70;99.90
17968;DHT22;9109;48.050;11.696;2023-08-01T08:27:53;18.90;99.90
17968;DHT22;9109;48.050;11.696;2023-08-01T08:30:55;19.00;99.90
17968;DHT22;9109;48.050;11.696;2023-08-01T08:33:57;19.00;99.90
17968;DHT22;9109;48.050;11.696;2023-08-01T08:37:03;19.10;99.90
17968;DHT22;9109;48.050;11.696;2023-08-01T08:40:06;19.20;99.90
17968;DHT22;9109;48.050;11.696;2023-08-01T08:43:09;19.30;99.90
17968;DHT22;9109;48.050;11.696;2023-08-01T08:46:15;19.40;99.90
17968;DHT22;9109;48.050;11.696;2023-08-01T08:49:17;19.60;99.90
17968;DHT22;9109;48.050;11.696;2023-08-01T08:52:22;19.70;99.90
17968;DHT22;9109;48.050;11.696;2023-08-01T08:55:24;19.80;99.90
17968;DHT22;9109;48.050;11.696;2023-08-01T08:58:29;19.80;99.90
17968;DHT22;9109;48.050;11.696;2023-08-01T09:01:31;19.60;99.90
17968;DHT22;9109;48.050;11.696;2023-08-01T09:04:34;19.50;99.90
17968;DHT22;9109;48.050;11.696;2023-08-01T09:07:42;19.50;99.90
17968;DHT22;9109;48.050;11.696;2023-08-01T09:10:44;19.50;99.90
17968;DHT22;9109;48.050;11.696;2023-08-01T09:13:47;19.50;99.90
17968;DHT22;9109;48.050;11.696;2023-08-01T09:16:49;19.50;99.90
17968;DHT22;9109;48.050;11.696;2023-08-01T09:20:08;19.50;99.90
17968;DHT22;9109;48.050;11.696;2023-08-01T09:23:11;19.50;99.90
17968;DHT22;9109;48.050;11.696;2023-08-01T09:26:25;19.50;99.90
17968;DHT22;9109;48.050;11.696;2023-08-01T09:29:29;19.50;99.90
17968;DHT22;9109;48.050;11.696;2023-08-01T09:32:33;19.50;99.90
17968;DHT22;9109;48.050;11.696;2023-08-01T09:35:38;19.50;99.90
17968;DHT22;9109;48.050;11.696;2023-08-01T09:38:44;19.50;99.90
17968;DHT22;9109;48.050;11.696;2023-08-01T09:41:46;19.50;99.90
17968;DHT22;9109;48.050;11.696;2023-08-01T09:44:48;19.50;99.90
17968;DHT22;9109;48.050;11.696;2023-08-01T09:47:50;19.50;99.90
17968;DHT22;9109;48.050;11.696;2023-08-01T09:51:25;19.50;99.90
17968;DHT22;9109;48.050;11.696;2023-08-01T09:59:00;19.50;99.90
17968;DHT22;9109;48.050;11.696;2023-08-01T10:02:18;19.40;99.90
17968;DHT22;9109;48.050;11.696;2023-08-01T10:06:04;19.50;99.90
17968;DHT22;9109;48.050;11.696;2023-08-01T10:09:11;19.50;99.90
17968;DHT22;9109;48.050;11.696;2023-08-01T10:12:17;19.50;99.90
17968;DHT22;9109;48.050;11.696;2023-08-01T10:15:22;19.60;99.90
17968;DHT22;9109;48.050;11.696;2023-08-01T10:18:41;19.60;99.90
17968;DHT22;9109;48.050;11.696;2023-08-01T10:22:10;19.70;99.90
17968;DHT22;9109;48.050;11.696;2023-08-01T10:25:30;19.60;99.90
17968;DHT22;9109;48.050;11.696;2023-08-01T10:28:48;19.60;99.90
17968;DHT22;9109;48.050;11.696;2023-08-01T10:32:39;19.50;99.90
17968;DHT22;9109;48.050;11.696;2023-08-01T10:36:17;19.40;99.90
17968;DHT22;9109;48.050;11.696;2023-08-01T10:39:26;19.30;99.90
17968;DHT22;9109;48.050;11.696;2023-08-01T10:42:42;19.20;99.90
17968;DHT22;9109;48.050;11.696;2023-08-01T10:46:01;19.30;99.90
17968;DHT22;9109;48.050;11.696;2023-08-01T10:49:35;19.60;99.90
17968;DHT22;9109;48.050;11.696;2023-08-01T10:52:38;19.50;99.90
17968;DHT22;9109;48.050;11.696;2023-08-01T10:55:44;19.40;99.90
17968;DHT22;9109;48.050;11.696;2023-08-01T10:58:57;19.40;99.90
17968;DHT22;9109;48.050;11.696;2023-08-01T11:01:59;19.30;99.90
17968;DHT22;9109;48.050;11.696;2023-08-01T11:05:10;19.30;99.90
17968;DHT22;9109;48.050;11.696;2023-08-01T11:08:20;19.20;99.90
17968;DHT22;9109;48.050;11.696;2023-08-01T11:11:23;19.10;99.90
17968;DHT22;9109;48.050;11.696;2023-08-01T11:14:26;18.90;99.90
17968;DHT22;9109;48.050;11.696;2023-08-01T11:17:28;18.80;99.90
17968;DHT22;9109;48.050;11.696;2023-08-01T11:20:32;18.70;99.90
17968;DHT22;9109;48.050;11.696;2023-08-01T11:23:40;18.70;99.90
17968;DHT22;9109;48.050;11.696;2023-08-01T11:26:46;18.70;99.90
17968;DHT22;9109;48.050;11.696;2023-08-01T11:29:48;18.80;99.90
17968;DHT22;9109;48.050;11.696;2023-08-01T11:32:50;18.80;99.90
17968;DHT22;9109;48.050;11.696;2023-08-01T11:35:56;18.90;99.90
17968;DHT22;9109;48.050;11.696;2023-08-01T11:39:00;18.80;99.90
17968;DHT22;9109;48.050;11.696;2023-08-01T11:42:14;18.70;99.90
17968;DHT22;9109;48.050;11.696;2023-08-01T11:45:16;18.70;99.90
17968;DHT22;9109;48.050;11.696;2023-08-01T11:48:22;18.70;99.90
17968;DHT22;9109;48.050;11.696;2023-08-01T11:51:25;18.70;99.90
17968;DHT22;9109;48.050;11.696;2023-08-01T11:54:27;18.70;99.90
17968;DHT22;9109;48.050;11.696;2023-08-01T11:57:29;18.70;99.90
17968;DHT22;9109;48.050;11.696;2023-08-01T12:00:31;18.70;99.90
17968;DHT22;9109;48.050;11.696;2023-08-01T12:03:42;18.70;99.90
17968;DHT22;9109;48.050;11.696;2023-08-01T12:06:45;18.70;99.90
17968;DHT22;9109;48.050;11.696;2023-08-01T12:09:56;18.80;99.90
17968;DHT22;9109;48.050;11.696;2023-08-01T12:12:58;18.80;99.90
17968;DHT22;9109;48.050;11.696;2023-08-01T12:16:00;18.90;99.90
17968;DHT22;9109;48.050;11.696;2023-08-01T12:19:02;18.90;99.90
17968;DHT22;9109;48.050;11.696;2023-08-01T12:22:05;19.00;99.90
17968;DHT22;9109;48.050;11.696;2023-08-01T12:25:08;19.10;99.90
17968;DHT22;9109;48.050;11.696;2023-08-01T12:28:10;19.30;99.90
17968;DHT22;9109;48.050;11.696;2023-08-01T12:31:16;19.30;99.90
17968;DHT22;9109;48.050;11.696;2023-08-01T12:34:18;19.50;99.90
17968;DHT22;9109;48.050;11.696;2023-08-01T12:37:21;19.60;99.90
17968;DHT22;9109;48.050;11.696;2023-08-01T12:40:25;19.70;99.90
17968;DHT22;9109;48.050;11.696;2023-08-01T12:43:27;19.70;99.90
17968;DHT22;9109;48.050;11.696;2023-08-01T12:46:30;19.80;99.90
17968;DHT22;9109;48.050;11.696;2023-08-01T12:49:32;19.90;99.90
17968;DHT22;9109;48.050;11.696;2023-08-01T12:52:36;20.10;99.90
17968;DHT22;9109;48.050;11.696;2023-08-01T12:55:38;20.20;99.90
17968;DHT22;9109;48.050;11.696;2023-08-01T12:58:40;20.30;99.90
17968;DHT22;9109;48.050;11.696;2023-08-01T13:01:43;20.30;99.90
17968;DHT22;9109;48.050;11.696;2023-08-01T13:04:45;20.50;99.90
17968;DHT22;9109;48.050;11.696;2023-08-01T13:07:49;20.60;99.90
17968;DHT22;9109;48.050;11.696;2023-08-01T13:10:51;20.60;99.90
17968;DHT22;9109;48.050;11.696;2023-08-01T13:13:53;20.80;99.90
17968;DHT22;9109;48.050;11.696;2023-08-01T13:16:55;20.80;99.90
17968;DHT22;9109;48.050;11.696;2023-08-01T13:19:57;20.70;99.90
17968;DHT22;9109;48.050;11.696;2023-08-01T13:23:01;20.60;99.90
17968;DHT22;9109;48.050;11.696;2023-08-01T13:26:03;20.50;99.90
17968;DHT22;9109;48.050;11.696;2023-08-01T13:29:05;20.40;99.90
17968;DHT22;9109;48.050;11.696;2023-08-01T13:32:07;20.40;99.90
17968;DHT22;9109;48.050;11.696;2023-08-01T13:35:09;20.40;99.90
17968;DHT22;9109;48.050;11.696;2023-08-01T13:38:13;20.60;99.90
17968;DHT22;9109;48.050;11.696;2023-08-01T13:41:15;21.00;99.90
17968;DHT22;9109;48.050;11.696;2023-08-01T13:44:17;21.40;99.90
17968;DHT22;9109;48.050;11.696;2023-08-01T13:47:24;21.40;99.90
17968;DHT22;9109;48.050;11.696;2023-08-01T13:50:28;21.30;99.90
17968;DHT22;9109;48.050;11.696;2023-08-01T13:53:37;21.00;99.90
17968;DHT22;9109;48.050;11.696;2023-08-01T13:56:41;20.90;99.90
17968;DHT22;9109;48.050;11.696;2023-08-01T13:59:49;20.80;99.90
17968;DHT22;9109;48.050;11.696;2023-08-01T14:02:56;20.90;99.90
17968;DHT22;9109;48.050;11.696;2023-08-01T14:06:04;21.10;99.90
17968;DHT22;9109;48.050;11.696;2023-08-01T14:09:13;21.60;99.90
17968;DHT22;9109;48.050;11.696;2023-08-01T14:12:20;21.70;99.90
17968;DHT22;9109;48.050;11.696;2023-08-01T14:15:38;21.60;99.90
17968;DHT22;9109;48.050;11.696;2023-08-01T14:18:40;21.60;99.90
17968;DHT22;9109;48.050;11.696;2023-08-01T14:21:43;21.60;99.90
17968;DHT22;9109;48.050;11.696;2023-08-01T14:24:47;21.60;99.90
17968;DHT22;9109;48.050;11.696;2023-08-01T14:27:49;21.50;99.90
17968;DHT22;9109;48.050;11.696;2023-08-01T14:30:52;21.40;99.90
17968;DHT22;9109;48.050;11.696;2023-08-01T14:33:57;21.40;99.90
17968;DHT22;9109;48.050;11.696;2023-08-01T14:37:01;21.50;99.90
17968;DHT22;9109;48.050;11.696;2023-08-01T14:40:14;21.50;99.90
17968;DHT22;9109;48.050;11.696;2023-08-01T14:43:16;21.50;99.90
17968;DHT22;9109;48.050;11.696;2023-08-01T14:46:18;21.40;99.90
17968;DHT22;9109;48.050;11.696;2023-08-01T14:49:25;21.30;99.90
17968;DHT22;9109;48.050;11.696;2023-08-01T14:52:30;21.20;98.10
17968;DHT22;9109;48.050;11.696;2023-08-01T14:55:34;21.20;97.50
17968;DHT22;9109;48.050;11.696;2023-08-01T14:58:36;21.10;96.60
17968;DHT22;9109;48.050;11.696;2023-08-01T15:01:40;21.20;98.00
17968;DHT22;9109;48.050;11.696;2023-08-01T15:04:42;21.20;97.90
17968;DHT22;9109;48.050;11.696;2023-08-01T15:07:44;21.20;96.80
17968;DHT22;9109;48.050;11.696;2023-08-01T15:10:49;21.00;95.80
17968;DHT22;9109;48.050;11.696;2023-08-01T15:13:51;21.00;96.60
17968;DHT22;9109;48.050;11.696;2023-08-01T15:16:53;20.90;96.50
17968;DHT22;9109;48.050;11.696;2023-08-01T15:19:55;20.60;96.90
17968;DHT22;9109;48.050;11.696;2023-08-01T15:22:58;20.50;98.90
17968;DHT22;9109;48.050;11.696;2023-08-01T15:26:01;20.00;99.90
17968;DHT22;9109;48.050;11.696;2023-08-01T15:29:03;19.70;99.90
17968;DHT22;9109;48.050;11.696;2023-08-01T15:32:06;19.50;99.90
17968;DHT22;9109;48.050;11.696;2023-08-01T15:35:08;19.40;99.90
17968;DHT22;9109;48.050;11.696;2023-08-01T15:38:10;19.40;99.90
17968;DHT22;9109;48.050;11.696;2023-08-01T15:41:13;19.20;99.90
17968;DHT22;9109;48.050;11.696;2023-08-01T15:44:15;19.20;99.90
17968;DHT22;9109;48.050;11.696;2023-08-01T15:47:20;19.20;99.90
17968;DHT22;9109;48.050;11.696;2023-08-01T15:50:22;19.20;99.90
17968;DHT22;9109;48.050;11.696;2023-08-01T15:53:24;19.30;99.90
17968;DHT22;9109;48.050;11.696;2023-08-01T15:56:28;19.30;99.90
17968;DHT22;9109;48.050;11.696;2023-08-01T15:59:30;19.30;99.90
17968;DHT22;9109;48.050;11.696;2023-08-01T16:02:46;19.40;99.90
17968;DHT22;9109;48.050;11.696;2023-08-01T16:05:48;19.70;99.90
17968;DHT22;9109;48.050;11.696;2023-08-01T16:08:54;20.00;99.90
17968;DHT22;9109;48.050;11.696;2023-08-01T16:12:05;20.20;99.90
17968;DHT22;9109;48.050;11.696;2023-08-01T16:15:08;20.20;99.90
17968;DHT22;9109;48.050;11.696;2023-08-01T16:18:15;20.30;99.90
17968;DHT22;9109;48.050;11.696;2023-08-01T16:21:19;20.30;99.90
17968;DHT22;9109;48.050;11.696;2023-08-01T16:28:22;20.60;99.90
17968;DHT22;9109;48.050;11.696;2023-08-01T16:31:24;20.50;99.90
17968;DHT22;9109;48.050;11.696;2023-08-01T16:34:27;20.50;99.90
17968;DHT22;9109;48.050;11.696;2023-08-01T16:37:29;20.50;99.90
17968;DHT22;9109;48.050;11.696;2023-08-01T16:40:31;20.40;99.90
17968;DHT22;9109;48.050;11.696;2023-08-01T16:43:34;20.40;99.90
17968;DHT22;9109;48.050;11.696;2023-08-01T16:47:03;20.40;99.90
17968;DHT22;9109;48.050;11.696;2023-08-01T16:50:20;20.40;99.90
17968;DHT22;9109;48.050;11.696;2023-08-01T16:53:24;20.40;99.90
17968;DHT22;9109;48.050;11.696;2023-08-01T16:56:39;20.30;99.90
17968;DHT22;9109;48.050;11.696;2023-08-01T16:59:51;20.20;99.90
17968;DHT22;9109;48.050;11.696;2023-08-01T17:02:56;20.20;99.90
17968;DHT22;9109;48.050;11.696;2023-08-01T17:06:04;20.20;99.90
17968;DHT22;9109;48.050;11.696;2023-08-01T17:09:19;20.20;99.90
17968;DHT22;9109;48.050;11.696;2023-08-01T17:12:34;20.10;99.90
17968;DHT22;9109;48.050;11.696;2023-08-01T17:15:52;20.00;99.90
17968;DHT22;9109;48.050;11.696;2023-08-01T17:19:11;19.90;99.90
17968;DHT22;9109;48.050;11.696;2023-08-01T17:22:30;19.90;99.90
17968;DHT22;9109;48.050;11.696;2023-08-01T17:25:47;19.90;99.90
17968;DHT22;9109;48.050;11.696;2023-08-01T17:29:04;19.80;99.90
17968;DHT22;9109;48.050;11.696;2023-08-01T17:35:46;19.80;99.90
17968;DHT22;9109;48.050;11.696;2023-08-01T17:38:50;19.70;99.90
17968;DHT22;9109;48.050;11.696;2023-08-01T17:41:52;19.70;99.90
17968;DHT22;9109;48.050;11.696;2023-08-01T17:45:02;19.70;99.90
17968;DHT22;9109;48.050;11.696;2023-08-01T17:48:27;19.60;99.90
17968;DHT22;9109;48.050;11.696;2023-08-01T17:51:41;19.70;99.90
17968;DHT22;9109;48.050;11.696;2023-08-01T17:54:58;19.70;99.90
17968;DHT22;9109;48.050;11.696;2023-08-01T17:58:19;19.60;99.90
17968;DHT22;9109;48.050;11.696;2023-08-01T18:01:26;19.50;99.90
17968;DHT22;9109;48.050;11.696;2023-08-01T18:04:31;19.50;99.90
17968;DHT22;9109;48.050;11.696;2023-08-01T18:07:33;19.50;99.90
17968;DHT22;9109;48.050;11.696;2023-08-01T18:10:36;19.60;99.90
17968;DHT22;9109;48.050;11.696;2023-08-01T18:13:38;19.60;99.90
17968;DHT22;9109;48.050;11.696;2023-08-01T18:16:41;19.60;99.90
17968;DHT22;9109;48.050;11.696;2023-08-01T18:19:44;19.60;99.90
17968;DHT22;9109;48.050;11.696;2023-08-01T18:22:46;19.50;99.90
17968;DHT22;9109;48.050;11.696;2023-08-01T18:25:50;19.30;99.90
17968;DHT22;9109;48.050;11.696;2023-08-01T18:28:52;19.20;99.90
17968;DHT22;9109;48.050;11.696;2023-08-01T18:31:55;19.10;99.90
17968;DHT22;9109;48.050;11.696;2023-08-01T18:34:58;19.00;99.90
17968;DHT22;9109;48.050;11.696;2023-08-01T18:38:00;18.90;99.90
17968;DHT22;9109;48.050;11.696;2023-08-01T18:41:03;18.80;99.90
17968;DHT22;9109;48.050;11.696;2023-08-01T18:44:05;18.70;99.90
17968;DHT22;9109;48.050;11.696;2023-08-01T18:47:07;18.60;99.90
17968;DHT22;9109;48.050;11.696;2023-08-01T18:50:11;18.70;99.90
17968;DHT22;9109;48.050;11.696;2023-08-01T18:53:12;18.60;99.90
17968;DHT22;9109;48.050;11.696;2023-08-01T18:56:15;18.70;99.90
17968;DHT22;9109;48.050;11.696;2023-08-01T18:59:19;18.60;99.90
17968;DHT22;9109;48.050;11.696;2023-08-01T19:02:21;18.50;99.90
17968;DHT22;9109;48.050;11.696;2023-08-01T19:05:26;18.50;99.90
17968;DHT22;9109;48.050;11.696;2023-08-01T19:08:28;18.50;99.90
17968;DHT22;9109;48.050;11.696;2023-08-01T19:11:30;18.50;99.90
17968;DHT22;9109;48.050;11.696;2023-08-01T19:14:32;18.50;99.90
17968;DHT22;9109;48.050;11.696;2023-08-01T19:17:34;18.50;99.90
17968;DHT22;9109;48.050;11.696;2023-08-01T19:20:38;18.50;99.90
17968;DHT22;9109;48.050;11.696;2023-08-01T19:23:43;18.40;99.90
17968;DHT22;9109;48.050;11.696;2023-08-01T19:26:50;18.40;99.90
17968;DHT22;9109;48.050;11.696;2023-08-01T19:30:13;18.40;99.90
17968;DHT22;9109;48.050;11.696;2023-08-01T19:37:39;18.30;99.90
17968;DHT22;9109;48.050;11.696;2023-08-01T19:44:39;18.20;99.90
17968;DHT22;9109;48.050;11.696;2023-08-01T19:47:55;18.20;99.90
17968;DHT22;9109;48.050;11.696;2023-08-01T19:51:15;18.30;99.90
17968;DHT22;9109;48.050;11.696;2023-08-01T19:54:36;18.20;99.90
17968;DHT22;9109;48.050;11.696;2023-08-01T19:57:49;18.20;99.90
17968;DHT22;9109;48.050;11.696;2023-08-01T20:01:01;18.20;99.90
17968;DHT22;9109;48.050;11.696;2023-08-01T20:04:08;18.10;99.90
17968;DHT22;9109;48.050;11.696;2023-08-01T20:07:10;18.10;99.90
17968;DHT22;9109;48.050;11.696;2023-08-01T20:10:14;18.00;99.90
17968;DHT22;9109;48.050;11.696;2023-08-01T20:17:37;17.90;99.90
17968;DHT22;9109;48.050;11.696;2023-08-01T20:20:40;17.90;99.90
17968;DHT22;9109;48.050;11.696;2023-08-01T20:23:42;17.90;99.90
17968;DHT22;9109;48.050;11.696;2023-08-01T20:26:45;17.90;99.90
17968;DHT22;9109;48.050;11.696;2023-08-01T20:29:49;17.90;99.90
17968;DHT22;9109;48.050;11.696;2023-08-01T20:32:57;17.90;99.90
17968;DHT22;9109;48.050;11.696;2023-08-01T20:35:59;17.90;99.90
17968;DHT22;9109;48.050;11.696;2023-08-01T20:39:01;17.90;99.90
17968;DHT22;9109;48.050;11.696;2023-08-01T20:42:15;17.80;99.90
17968;DHT22;9109;48.050;11.696;2023-08-01T20:45:18;17.80;99.90
17968;DHT22;9109;48.050;11.696;2023-08-01T20:48:20;17.80;99.90
17968;DHT22;9109;48.050;11.696;2023-08-01T20:51:25;17.80;99.90
17968;DHT22;9109;48.050;11.696;2023-08-01T20:54:27;17.80;99.90
17968;DHT22;9109;48.050;11.696;2023-08-01T20:57:30;17.80;99.90
17968;DHT22;9109;48.050;11.696;2023-08-01T21:00:32;17.70;99.90
17968;DHT22;9109;48.050;11.696;2023-08-01T21:03:34;17.70;99.90
17968;DHT22;9109;48.050;11.696;2023-08-01T21:06:36;17.70;99.90
17968;DHT22;9109;48.050;11.696;2023-08-01T21:09:39;17.60;99.90
17968;DHT22;9109;48.050;11.696;2023-08-01T21:12:43;17.60;99.90
17968;DHT22;9109;48.050;11.696;2023-08-01T21:15:45;17.70;99.90
17968;DHT22;9109;48.050;11.696;2023-08-01T21:18:48;17.70;99.90
17968;DHT22;9109;48.050;11.696;2023-08-01T21:21:50;17.70;99.90
17968;DHT22;9109;48.050;11.696;2023-08-01T21:24:52;17.70;99.90
17968;DHT22;9109;48.050;11.696;2023-08-01T21:27:56;17.70;99.90
17968;DHT22;9109;48.050;11.696;2023-08-01T21:30:58;17.70;99.90
17968;DHT22;9109;48.050;11.696;2023-08-01T21:34:01;17.70;99.90
17968;DHT22;9109;48.050;11.696;2023-08-01T21:37:06;17.70;99.90
17968;DHT22;9109;48.050;11.696;2023-08-01T21:40:18;17.70;99.90
17968;DHT22;9109;48.050;11.696;2023-08-01T21:43:30;17.70;99.90
17968;DHT22;9109;48.050;11.696;2023-08-01T21:46:36;17.70;99.90
17968;DHT22;9109;48.050;11.696;2023-08-01T21:49:48;17.60;99.90
17968;DHT22;9109;48.050;11.696;2023-08-01T21:52:50;17.60;99.90
17968;DHT22;9109;48.050;11.696;2023-08-01T21:55:58;17.50;99.90
17968;DHT22;9109;48.050;11.696;2023-08-01T21:59:06;17.50;99.90
17968;DHT22;9109;48.050;11.696;2023-08-01T22:02:11;17.50;99.90
17968;DHT22;9109;48.050;11.696;2023-08-01T22:05:20;17.50;99.90
17968;DHT22;9109;48.050;11.696;2023-08-01T22:08:32;17.50;99.90
17968;DHT22;9109;48.050;11.696;2023-08-01T22:11:46;17.50;99.90
17968;DHT22;9109;48.050;11.696;2023-08-01T22:14:52;17.40;99.90
17968;DHT22;9109;48.050;11.696;2023-08-01T22:17:54;17.40;99.90
17968;DHT22;9109;48.050;11.696;2023-08-01T22:20:57;17.40;99.90
17968;DHT22;9109;48.050;11.696;2023-08-01T22:24:02;17.40;99.90
17968;DHT22;9109;48.050;11.696;2023-08-01T22:27:04;17.40;99.90
17968;DHT22;9109;48.050;11.696;2023-08-01T22:30:08;17.40;99.90
17968;DHT22;9109;48.050;11.696;2023-08-01T22:33:11;17.40;99.90
17968;DHT22;9109;48.050;11.696;2023-08-01T22:36:13;17.40;99.90
17968;DHT22;9109;48.050;11.696;2023-08-01T22:39:15;17.30;99.90
17968;DHT22;9109;48.050;11.696;2023-08-01T22:42:17;17.40;99.90
17968;DHT22;9109;48.050;11.696;2023-08-01T22:45:21;17.30;99.90
17968;DHT22;9109;48.050;11.696;2023-08-01T22:48:29;17.40;99.90
17968;DHT22;9109;48.050;11.696;2023-08-01T22:51:31;17.40;99.90
17968;DHT22;9109;48.050;11.696;2023-08-01T22:54:34;17.30;99.90
17968;DHT22;9109;48.050;11.696;2023-08-01T22:57:37;17.20;99.90
